Time;durP1;ratioP1;P1;durP2;ratioP2;P2;SDS_P1;SDS_P2;PMS_P1;PMS_P2;Temp;Humidity;BMP_temperature;BMP_pressure;BME280_temperature;BME280_humidity;BME280_pressure;Samples;Min_cycle;Max_cycle;Signal;HPM_P1;HPM_P2
2022/06/08 00:00:53;;;;;;;0.47;0.38;;;12.10;99.90;;;;;;5071389;28;20200;-83
2022/06/08 00:03:27;;;;;;;0.20;0.20;;;12.20;99.90;;;;;;5068631;28;20342;-81
2022/06/08 00:05:57;;;;;;;0.40;0.35;;;12.30;99.90;;;;;;5068072;28;20700;-83
2022/06/08 00:08:28;;;;;;;0.30;0.30;;;12.40;99.90;;;;;;5070478;28;20199;-78
2022/06/08 00:10:59;;;;;;;1.17;0.40;;;12.50;99.90;;;;;;5082780;28;20221;-79
2022/06/08 00:13:30;;;;;;;0.80;0.43;;;12.50;99.90;;;;;;5063970;28;20201;-85
2022/06/08 00:16:03;;;;;;;0.40;0.30;;;12.60;99.90;;;;;;5065623;28;20203;-82
2022/06/08 00:18:33;;;;;;;1.45;0.43;;;12.70;99.90;;;;;;5072341;28;20558;-87
2022/06/08 00:21:05;;;;;;;0.30;0.30;;;12.80;99.90;;;;;;5072264;28;20197;-81
2022/06/08 00:23:36;;;;;;;0.47;0.30;;;12.90;99.90;;;;;;5067890;28;20200;-79
2022/06/08 00:26:07;;;;;;;1.17;0.40;;;13.00;99.90;;;;;;5069297;28;20197;-81
2022/06/08 00:28:41;;;;;;;0.73;0.28;;;13.00;99.90;;;;;;5074208;28;20199;-83
2022/06/08 00:31:14;;;;;;;3.20;0.43;;;13.10;99.90;;;;;;5073660;28;20200;-82
2022/06/08 00:33:45;;;;;;;1.23;0.40;;;13.20;99.90;;;;;;5072998;28;20204;-76
2022/06/08 00:36:15;;;;;;;0.47;0.30;;;13.20;99.90;;;;;;5073106;28;20228;-76
2022/06/08 00:38:46;;;;;;;1.70;0.40;;;13.20;99.90;;;;;;5070704;28;20194;-74
2022/06/08 00:41:35;;;;;;;10.23;5.78;;;13.30;99.90;;;;;;5069611;28;20200;-76
2022/06/08 00:44:11;;;;;;;17.33;10.25;;;13.40;99.90;;;;;;5070745;28;20203;-76
2022/06/08 00:46:44;;;;;;;13.57;8.15;;;13.50;99.90;;;;;;5068029;28;20196;-75
2022/06/08 00:49:22;;;;;;;10.02;5.90;;;13.60;99.90;;;;;;5071588;28;20216;-77
2022/06/08 00:51:53;;;;;;;6.55;2.28;;;13.60;99.90;;;;;;5076150;28;20205;-75
2022/06/08 00:54:28;;;;;;;1.98;1.35;;;13.60;99.90;;;;;;5074477;28;20204;-75
2022/06/08 00:57:05;;;;;;;2.20;0.60;;;13.60;99.90;;;;;;5075251;28;20274;-75
2022/06/08 00:59:38;;;;;;;1.38;0.43;;;13.60;99.90;;;;;;5073846;28;20215;-76
2022/06/08 01:02:11;;;;;;;0.47;0.40;;;13.60;99.90;;;;;;5073904;28;20193;-75
2022/06/08 01:04:42;;;;;;;1.08;0.30;;;13.70;99.90;;;;;;5069361;28;20224;-75
2022/06/08 01:07:20;;;;;;;1.52;0.40;;;13.80;99.90;;;;;;5066712;28;20201;-75
2022/06/08 01:09:52;;;;;;;0.20;0.20;;;13.90;99.90;;;;;;5067431;28;20224;-77
2022/06/08 01:12:23;;;;;;;0.45;0.22;;;14.00;99.90;;;;;;5071572;28;20198;-75
2022/06/08 01:14:54;;;;;;;1.60;0.30;;;14.10;99.90;;;;;;5071504;28;20193;-75
2022/06/08 01:17:27;;;;;;;0.57;0.38;;;14.20;99.90;;;;;;5073962;28;20227;-75
2022/06/08 01:19:57;;;;;;;2.00;0.50;;;14.20;99.90;;;;;;5069222;28;20205;-76
2022/06/08 01:22:30;;;;;;;1.27;0.70;;;14.20;99.90;;;;;;5071389;28;20652;-76
2022/06/08 01:25:01;;;;;;;2.65;0.40;;;14.30;99.90;;;;;;5071682;28;20197;-75
2022/06/08 01:27:46;;;;;;;4.28;0.35;;;14.40;99.90;;;;;;5071901;28;20200;-77
2022/06/08 01:30:24;;;;;;;0.70;0.20;;;14.50;99.90;;;;;;5074249;28;20221;-78
2022/06/08 01:33:43;;;;;;;0.82;0.30;;;14.50;99.90;;;;;;5071768;28;20268;-75
2022/06/08 01:36:29;;;;;;;0.80;0.40;;;14.50;99.90;;;;;;5071985;28;20231;-74
2022/06/08 01:39:07;;;;;;;3.85;0.20;;;14.40;99.90;;;;;;5072621;28;20648;-75
2022/06/08 01:42:03;;;;;;;1.00;0.30;;;14.50;99.90;;;;;;5069770;28;20203;-78
2022/06/08 01:47:57;;;;;;;0.65;0.20;;;14.50;99.90;;;;;;5071894;28;20196;-75
2022/06/08 01:50:34;;;;;;;0.40;0.40;;;14.60;99.90;;;;;;5069389;28;20702;-75
2022/06/08 01:53:11;;;;;;;1.45;0.30;;;14.60;99.90;;;;;;5068754;28;20246;-75
2022/06/08 01:55:51;;;;;;;0.43;0.30;;;14.70;99.90;;;;;;5067935;28;20197;-75
2022/06/08 01:58:29;;;;;;;1.25;0.30;;;14.70;99.90;;;;;;5069582;28;20196;-74
2022/06/08 02:01:05;;;;;;;1.35;0.38;;;14.60;99.90;;;;;;5070666;28;20207;-75
2022/06/08 02:03:43;;;;;;;0.32;0.30;;;14.60;99.90;;;;;;5067946;28;20593;-75
2022/06/08 02:06:19;;;;;;;0.40;0.30;;;14.60;99.90;;;;;;5071090;28;20647;-75
2022/06/08 02:08:54;;;;;;;0.63;0.30;;;14.60;99.90;;;;;;5068693;28;20200;-74
2022/06/08 02:11:33;;;;;;;0.95;0.45;;;14.70;99.90;;;;;;5070134;28;20208;-76
2022/06/08 02:14:10;;;;;;;2.30;0.30;;;14.80;99.90;;;;;;5069974;28;20554;-75
2022/06/08 02:16:44;;;;;;;0.60;0.30;;;14.90;99.90;;;;;;5064279;28;20283;-75
2022/06/08 02:19:18;;;;;;;0.43;0.20;;;14.90;99.90;;;;;;5069312;28;20197;-75
2022/06/08 02:21:52;;;;;;;0.28;0.20;;;14.90;99.90;;;;;;5071883;28;20239;-74
2022/06/08 02:24:28;;;;;;;1.60;0.30;;;14.90;99.90;;;;;;5067015;28;20203;-75
2022/06/08 02:27:03;;;;;;;1.23;0.30;;;15.00;99.90;;;;;;5069589;28;20200;-75
2022/06/08 02:29:40;;;;;;;1.85;0.30;;;15.00;99.90;;;;;;5071859;28;20247;-75
2022/06/08 02:35:03;;;;;;;0.95;0.30;;;15.20;99.90;;;;;;5065231;28;20208;-74
2022/06/08 02:37:36;;;;;;;0.77;0.30;;;15.20;99.90;;;;;;5068448;28;20228;-75
2022/06/08 02:40:11;;;;;;;0.68;0.20;;;15.20;99.90;;;;;;5072613;28;20212;-76
2022/06/08 02:42:47;;;;;;;1.85;0.30;;;15.20;99.90;;;;;;5072187;28;20201;-75
2022/06/08 02:45:20;;;;;;;1.67;0.28;;;15.20;99.90;;;;;;5068956;28;20193;-75
2022/06/08 02:47:53;;;;;;;1.50;0.30;;;15.20;99.90;;;;;;5072086;28;20189;-74
2022/06/08 02:50:27;;;;;;;2.35;0.30;;;15.30;99.90;;;;;;5072381;28;20223;-76
2022/06/08 02:53:11;;;;;;;0.30;0.20;;;15.20;99.90;;;;;;5070454;28;20283;-75
2022/06/08 02:55:50;;;;;;;0.43;0.20;;;15.20;99.90;;;;;;5070910;28;20188;-74
2022/06/08 02:58:26;;;;;;;1.15;0.20;;;15.20;99.90;;;;;;5070944;28;20244;-75
2022/06/08 03:01:00;;;;;;;0.43;0.20;;;15.20;99.90;;;;;;5071783;28;20197;-75
2022/06/08 03:03:35;;;;;;;0.73;0.20;;;15.20;99.90;;;;;;5060388;28;20207;-76
2022/06/08 03:06:09;;;;;;;1.65;0.30;;;15.30;99.90;;;;;;5047358;28;20667;-76
2022/06/08 03:08:43;;;;;;;1.98;0.40;;;15.40;99.90;;;;;;5042527;28;20203;-75
2022/06/08 03:11:14;;;;;;;0.50;0.30;;;15.40;99.90;;;;;;5047276;28;20254;-75
2022/06/08 03:13:52;;;;;;;0.43;0.30;;;15.50;99.90;;;;;;5049839;28;20189;-75
2022/06/08 03:16:31;;;;;;;1.48;0.30;;;15.60;99.90;;;;;;5051007;28;20197;-75
2022/06/08 03:19:02;;;;;;;0.25;0.13;;;15.40;99.90;;;;;;5042285;28;20197;-77
2022/06/08 03:21:32;;;;;;;0.45;0.28;;;15.40;99.90;;;;;;5048866;28;20706;-75
2022/06/08 03:24:04;;;;;;;0.35;0.20;;;15.30;99.90;;;;;;5048799;28;20181;-75
2022/06/08 03:26:41;;;;;;;2.00;0.32;;;15.20;99.90;;;;;;5050376;28;20653;-75
2022/06/08 03:29:13;;;;;;;0.20;0.20;;;15.30;99.90;;;;;;5045891;28;20541;-74
2022/06/08 03:31:44;;;;;;;1.02;0.30;;;15.40;99.90;;;;;;5045881;28;20220;-77
2022/06/08 03:34:15;;;;;;;0.38;0.30;;;15.40;99.90;;;;;;5045526;28;20194;-75
2022/06/08 03:36:46;;;;;;;0.73;0.20;;;15.20;99.90;;;;;;5049821;28;20243;-75
2022/06/08 03:39:17;;;;;;;0.20;0.20;;;15.20;99.90;;;;;;5051414;28;20190;-76
2022/06/08 03:41:48;;;;;;;0.28;0.20;;;15.20;99.90;;;;;;5047569;28;20224;-76
2022/06/08 03:44:21;;;;;;;0.30;0.30;;;15.20;99.90;;;;;;5047329;28;20263;-75
2022/06/08 03:46:56;;;;;;;0.98;0.40;;;15.20;99.90;;;;;;5048237;28;20200;-75
2022/06/08 03:49:28;;;;;;;1.52;0.30;;;15.10;99.90;;;;;;5051393;28;20185;-73
2022/06/08 03:52:01;;;;;;;0.45;0.20;;;15.20;99.90;;;;;;5045923;28;20267;-76
2022/06/08 03:54:38;;;;;;;0.50;0.20;;;15.20;99.90;;;;;;5047662;28;20221;-77
2022/06/08 03:57:11;;;;;;;0.28;0.20;;;15.30;99.90;;;;;;5048156;28;20196;-78
2022/06/08 03:59:47;;;;;;;2.10;0.30;;;15.30;99.90;;;;;;5053593;28;20193;-77
2022/06/08 04:02:18;;;;;;;0.60;0.30;;;15.30;99.90;;;;;;5042404;28;20251;-75
2022/06/08 04:04:49;;;;;;;0.52;0.30;;;15.20;99.90;;;;;;5059598;28;20711;-76
2022/06/08 04:07:20;;;;;;;0.10;0.10;;;15.20;99.90;;;;;;5067807;28;20671;-77
2022/06/08 04:09:51;;;;;;;1.20;0.30;;;15.10;99.90;;;;;;5068333;28;20195;-78
2022/06/08 04:12:23;;;;;;;0.43;0.40;;;15.10;99.90;;;;;;5063325;28;20192;-75
2022/06/08 04:14:56;;;;;;;1.13;0.30;;;15.10;99.90;;;;;;5068881;28;20224;-81
2022/06/08 04:17:27;;;;;;;0.52;0.20;;;15.20;99.90;;;;;;5070337;28;20288;-76
2022/06/08 04:19:57;;;;;;;0.35;0.20;;;15.20;99.90;;;;;;5070571;28;20262;-81
2022/06/08 04:22:31;;;;;;;0.35;0.30;;;15.20;99.90;;;;;;5071188;28;20601;-80
2022/06/08 04:25:02;;;;;;;1.98;0.50;;;15.20;99.90;;;;;;5070475;28;20285;-76
2022/06/08 04:27:34;;;;;;;1.38;0.40;;;15.20;99.90;;;;;;5064823;28;20194;-81
2022/06/08 04:30:07;;;;;;;1.13;0.50;;;15.20;99.90;;;;;;5065690;28;20616;-80
2022/06/08 04:32:37;;;;;;;1.83;0.50;;;15.10;99.90;;;;;;5065859;28;20193;-76
2022/06/08 04:35:09;;;;;;;3.22;0.65;;;15.10;99.90;;;;;;5071185;28;20807;-80
2022/06/08 04:37:40;;;;;;;0.90;0.40;;;15.00;99.90;;;;;;5070326;28;20193;-75
2022/06/08 04:40:15;;;;;;;0.20;0.20;;;15.00;99.90;;;;;;5068646;28;20185;-80
2022/06/08 04:42:45;;;;;;;0.50;0.32;;;14.90;99.90;;;;;;5069616;28;20188;-77
2022/06/08 04:45:18;;;;;;;2.88;0.50;;;15.00;99.90;;;;;;5070200;28;20193;-76
2022/06/08 04:47:49;;;;;;;0.65;0.30;;;15.00;99.90;;;;;;5071897;28;20590;-76
2022/06/08 04:50:19;;;;;;;0.25;0.25;;;15.00;99.90;;;;;;5070646;28;20188;-79
2022/06/08 04:52:50;;;;;;;0.80;0.25;;;14.90;99.90;;;;;;5071168;28;20598;-77
2022/06/08 04:55:22;;;;;;;1.52;0.43;;;15.00;99.90;;;;;;5070620;28;20201;-76
2022/06/08 04:57:53;;;;;;;0.90;0.40;;;15.00;99.90;;;;;;5062828;28;20250;-76
2022/06/08 05:00:26;;;;;;;1.48;0.40;;;15.10;99.90;;;;;;5067565;28;20201;-76
2022/06/08 05:02:57;;;;;;;0.20;0.20;;;15.10;99.90;;;;;;5069286;28;20200;-76
2022/06/08 05:05:31;;;;;;;0.93;0.43;;;15.10;99.90;;;;;;5066422;28;20236;-77
2022/06/08 05:08:02;;;;;;;2.05;0.43;;;15.10;99.90;;;;;;5070914;28;20656;-76
2022/06/08 05:10:35;;;;;;;1.10;0.30;;;15.00;99.90;;;;;;5072561;28;20213;-76
2022/06/08 05:13:06;;;;;;;1.05;0.30;;;15.00;99.90;;;;;;5073329;28;20656;-76
2022/06/08 05:15:42;;;;;;;2.35;0.20;;;14.90;99.90;;;;;;5069109;28;20683;-78
2022/06/08 05:18:14;;;;;;;0.98;0.30;;;14.90;99.90;;;;;;5071780;28;20197;-75
2022/06/08 05:20:46;;;;;;;0.63;0.40;;;14.90;99.90;;;;;;5072935;28;20193;-76
2022/06/08 05:23:19;;;;;;;1.25;0.50;;;14.90;99.90;;;;;;5073804;28;20200;-75
2022/06/08 05:25:52;;;;;;;2.15;0.40;;;15.00;99.90;;;;;;5071519;28;20193;-76
2022/06/08 05:28:23;;;;;;;0.30;0.30;;;15.00;99.90;;;;;;5070659;28;20193;-76
2022/06/08 05:30:57;;;;;;;2.20;0.60;;;14.90;99.90;;;;;;5073766;28;20621;-78
2022/06/08 05:33:29;;;;;;;0.98;0.60;;;14.90;99.90;;;;;;5074107;28;20221;-75
2022/06/08 05:36:00;;;;;;;29.08;17.35;;;14.90;99.90;;;;;;5072687;28;20227;-76
2022/06/08 05:38:30;;;;;;;5.85;3.03;;;14.80;99.90;;;;;;5072036;28;20192;-77
2022/06/08 05:41:01;;;;;;;0.75;0.63;;;14.80;99.90;;;;;;5071335;28;20652;-75
2022/06/08 05:43:32;;;;;;;2.80;1.15;;;14.80;99.90;;;;;;5073978;28;20236;-76
2022/06/08 05:46:04;;;;;;;0.50;0.50;;;14.80;99.90;;;;;;5069127;28;20197;-79
2022/06/08 05:48:35;;;;;;;1.63;0.60;;;14.80;99.90;;;;;;5070653;28;20536;-79
2022/06/08 05:51:06;;;;;;;0.52;0.50;;;14.70;99.90;;;;;;5072982;28;20213;-76
2022/06/08 05:53:36;;;;;;;0.50;0.50;;;14.70;99.90;;;;;;5072207;28;20196;-76
2022/06/08 05:56:07;;;;;;;1.00;0.30;;;14.60;99.90;;;;;;5071924;28;20193;-77
2022/06/08 05:58:38;;;;;;;0.63;0.40;;;14.50;99.90;;;;;;5071109;28;20267;-78
2022/06/08 06:01:11;;;;;;;1.80;0.75;;;14.50;99.90;;;;;;5066834;28;20296;-78
2022/06/08 06:03:41;;;;;;;9.90;5.88;;;14.40;99.90;;;;;;5069653;28;20262;-77
2022/06/08 06:06:12;;;;;;;16.33;8.75;;;14.40;99.90;;;;;;5067422;28;20953;-77
2022/06/08 06:08:45;;;;;;;3.58;1.85;;;14.40;99.90;;;;;;5073840;28;20185;-78
2022/06/08 06:11:17;;;;;;;1.58;0.98;;;14.40;99.90;;;;;;5069130;28;20317;-78
2022/06/08 06:13:47;;;;;;;1.52;0.95;;;14.30;99.90;;;;;;5069878;28;20201;-79
2022/06/08 06:16:20;;;;;;;1.08;0.80;;;14.20;99.90;;;;;;5072834;28;20197;-77
2022/06/08 06:18:51;;;;;;;1.23;0.43;;;14.20;99.90;;;;;;5072009;28;20189;-77
2022/06/08 06:21:25;;;;;;;1.55;0.60;;;14.10;99.90;;;;;;5071342;28;20197;-77
2022/06/08 06:23:55;;;;;;;0.38;0.38;;;14.10;99.90;;;;;;5072622;28;20197;-78
2022/06/08 06:26:26;;;;;;;1.23;0.50;;;14.00;99.90;;;;;;5069874;28;20185;-78
2022/06/08 06:28:57;;;;;;;0.68;0.50;;;14.00;99.90;;;;;;5072710;28;20197;-78
2022/06/08 06:31:33;;;;;;;0.68;0.50;;;13.90;99.90;;;;;;5069882;28;20216;-78
2022/06/08 06:34:03;;;;;;;0.68;0.50;;;13.80;99.90;;;;;;5072016;28;20652;-78
2022/06/08 06:36:34;;;;;;;1.40;0.60;;;13.80;99.90;;;;;;5072750;28;20643;-78
2022/06/08 06:39:05;;;;;;;0.90;0.60;;;13.80;99.90;;;;;;5066406;28;20185;-79
2022/06/08 06:41:36;;;;;;;0.55;0.40;;;13.70;99.90;;;;;;5072342;28;20201;-78
2022/06/08 06:44:07;;;;;;;1.20;0.50;;;13.60;99.90;;;;;;5070384;28;20201;-78
2022/06/08 06:46:39;;;;;;;0.60;0.60;;;13.50;99.90;;;;;;5065933;28;20244;-78
2022/06/08 06:49:10;;;;;;;0.90;0.43;;;13.50;99.90;;;;;;5067410;28;20246;-77
2022/06/08 06:51:41;;;;;;;1.02;0.60;;;13.40;99.90;;;;;;5071585;28;20683;-78
2022/06/08 06:54:14;;;;;;;0.82;0.57;;;13.30;99.90;;;;;;5069903;28;20644;-78
2022/06/08 06:56:44;;;;;;;1.00;0.65;;;13.30;99.90;;;;;;5072999;28;20693;-78
2022/06/08 06:59:15;;;;;;;1.60;0.73;;;13.20;99.90;;;;;;5069897;28;20319;-78
2022/06/08 07:01:48;;;;;;;3.45;0.98;;;13.10;99.90;;;;;;5072558;28;20193;-78
2022/06/08 07:04:20;;;;;;;1.70;0.90;;;13.10;99.90;;;;;;5072783;28;20232;-79
2022/06/08 07:06:50;;;;;;;2.20;1.00;;;13.00;99.90;;;;;;5070624;28;20648;-79
2022/06/08 07:09:21;;;;;;;1.83;1.10;;;13.00;99.90;;;;;;5072475;28;20656;-79
2022/06/08 07:11:52;;;;;;;1.45;1.00;;;12.90;99.90;;;;;;5071770;28;20225;-79
2022/06/08 07:14:23;;;;;;;1.20;0.90;;;12.90;99.90;;;;;;5071935;28;20228;-78
2022/06/08 07:16:56;;;;;;;2.72;0.90;;;12.80;99.90;;;;;;5072436;28;20192;-76
2022/06/08 07:19:27;;;;;;;5.40;0.98;;;12.80;99.90;;;;;;5073503;28;20192;-78
2022/06/08 07:21:58;;;;;;;0.77;0.68;;;12.70;99.90;;;;;;5073714;28;20193;-78
2022/06/08 07:24:31;;;;;;;2.65;0.93;;;12.70;99.90;;;;;;5073170;28;20193;-79
2022/06/08 07:27:03;;;;;;;1.30;0.80;;;12.60;99.90;;;;;;5073633;28;20189;-78
2022/06/08 07:29:34;;;;;;;1.67;0.88;;;12.60;99.90;;;;;;5073058;28;20640;-78
2022/06/08 07:32:07;;;;;;;1.85;0.60;;;12.50;99.90;;;;;;5072814;28;20216;-77
2022/06/08 07:34:37;;;;;;;2.85;1.00;;;12.50;99.90;;;;;;5072154;28;20201;-78
2022/06/08 07:37:08;;;;;;;0.95;0.68;;;12.40;99.90;;;;;;5073026;28;20196;-79
2022/06/08 07:39:39;;;;;;;4.00;0.70;;;12.40;99.90;;;;;;5070988;28;20558;-78
2022/06/08 07:42:10;;;;;;;0.88;0.80;;;12.30;99.90;;;;;;5069909;28;20205;-78
2022/06/08 07:44:41;;;;;;;0.70;0.70;;;12.20;99.90;;;;;;5071775;28;20197;-77
2022/06/08 07:47:13;;;;;;;1.88;0.80;;;12.20;99.90;;;;;;5072028;28;20608;-78
2022/06/08 07:49:49;;;;;;;33.90;18.48;;;12.10;99.90;;;;;;5071777;28;20634;-78
2022/06/08 07:52:21;;;;;;;12.48;6.80;;;12.10;99.90;;;;;;5065507;28;20282;-79
2022/06/08 07:54:52;;;;;;;5.75;3.08;;;12.10;99.90;;;;;;5072104;28;20197;-79
2022/06/08 07:57:25;;;;;;;2.33;1.33;;;12.00;99.90;;;;;;5069351;28;20208;-78
2022/06/08 07:59:56;;;;;;;2.42;1.40;;;12.00;99.90;;;;;;5071711;28;20209;-79
2022/06/08 08:02:29;;;;;;;2.35;1.02;;;12.00;99.90;;;;;;5059140;28;20192;-78
2022/06/08 08:04:59;;;;;;;1.23;0.85;;;11.90;99.90;;;;;;5070120;28;20240;-78
2022/06/08 08:07:30;;;;;;;0.82;0.75;;;11.90;99.90;;;;;;5070760;28;20208;-78
2022/06/08 08:10:01;;;;;;;0.82;0.70;;;11.90;99.90;;;;;;5066540;28;20197;-79
2022/06/08 08:12:31;;;;;;;1.13;0.52;;;11.80;99.90;;;;;;5069377;28;20637;-80
2022/06/08 08:15:02;;;;;;;0.60;0.60;;;11.80;99.90;;;;;;5068795;28;20200;-78
2022/06/08 08:17:34;;;;;;;1.48;0.75;;;11.80;99.90;;;;;;5072414;28;20250;-79
2022/06/08 08:20:07;;;;;;;0.68;0.60;;;11.80;99.90;;;;;;5070815;28;20656;-76
2022/06/08 08:22:37;;;;;;;0.80;0.60;;;11.80;99.90;;;;;;5069552;28;20200;-78
2022/06/08 08:25:09;;;;;;;0.52;0.52;;;11.70;99.90;;;;;;5071603;28;20204;-79
2022/06/08 08:27:40;;;;;;;2.17;0.60;;;11.70;99.90;;;;;;5069165;28;20228;-79
2022/06/08 08:30:12;;;;;;;0.60;0.52;;;11.70;99.90;;;;;;5071431;28;20234;-76
2022/06/08 08:32:44;;;;;;;0.75;0.45;;;11.70;99.90;;;;;;5070040;28;20263;-76
2022/06/08 08:35:16;;;;;;;1.48;0.50;;;11.70;99.90;;;;;;5068629;28;20246;-77
2022/06/08 08:37:47;;;;;;;0.80;0.50;;;11.70;99.90;;;;;;5071365;28;20192;-78
2022/06/08 08:40:55;;;;;;;1.30;0.60;;;11.60;99.90;;;;;;5068329;28;20197;-78
2022/06/08 08:43:28;;;;;;;0.98;0.60;;;11.60;99.90;;;;;;4975364;28;20204;-79
2022/06/08 08:46:27;;;;;;;1.45;0.70;;;11.50;99.90;;;;;;5056597;28;20205;-77
2022/06/08 08:49:08;;;;;;;2.22;0.60;;;11.50;99.90;;;;;;5067720;28;20319;-78
2022/06/08 08:51:45;;;;;;;1.02;0.57;;;11.40;99.90;;;;;;5073114;28;20749;-76
2022/06/08 08:54:26;;;;;;;2.92;0.60;;;11.40;99.90;;;;;;5073956;28;20197;-78
2022/06/08 08:57:03;;;;;;;1.33;0.70;;;11.30;99.90;;;;;;5072792;28;20200;-78
2022/06/08 08:59:35;;;;;;;1.58;0.50;;;11.20;99.90;;;;;;5073512;28;20197;-79
2022/06/08 09:02:14;;;;;;;2.03;0.68;;;11.20;99.90;;;;;;5075320;28;20205;-78
2022/06/08 09:04:47;;;;;;;1.13;0.50;;;11.20;99.90;;;;;;5075509;28;20239;-77
2022/06/08 09:07:21;;;;;;;0.88;0.60;;;11.10;99.90;;;;;;5073937;28;20224;-78
2022/06/08 09:09:52;;;;;;;1.25;0.70;;;11.10;99.90;;;;;;5072558;28;20231;-77
2022/06/08 09:12:23;;;;;;;1.23;0.60;;;11.10;99.90;;;;;;5074850;28;20221;-78
2022/06/08 09:14:57;;;;;;;0.95;0.70;;;11.10;99.90;;;;;;5073631;28;20250;-78
2022/06/08 09:17:35;;;;;;;1.17;0.60;;;11.00;99.90;;;;;;5075008;28;20193;-78
2022/06/08 09:20:26;;;;;;;1.95;0.70;;;11.00;99.90;;;;;;5071695;28;20201;-77
2022/06/08 09:22:59;;;;;;;1.25;0.63;;;10.90;99.90;;;;;;5073548;28;20204;-77
2022/06/08 09:25:31;;;;;;;1.77;0.60;;;10.90;99.90;;;;;;5074451;28;20275;-78
2022/06/08 09:28:04;;;;;;;2.65;0.80;;;10.90;99.90;;;;;;5073997;28;20197;-77
2022/06/08 09:30:48;;;;;;;0.88;0.65;;;10.90;99.90;;;;;;5072214;28;20200;-78
2022/06/08 09:33:34;;;;;;;2.17;0.80;;;10.80;99.90;;;;;;5073734;28;20217;-79
2022/06/08 09:36:09;;;;;;;2.17;0.65;;;10.80;99.90;;;;;;5075045;28;20205;-79
2022/06/08 09:38:42;;;;;;;2.22;0.90;;;10.80;99.90;;;;;;5073302;28;20270;-78
2022/06/08 09:41:22;;;;;;;1.88;0.73;;;10.80;99.90;;;;;;5073387;28;20205;-78
2022/06/08 09:44:15;;;;;;;1.50;0.70;;;10.80;99.90;;;;;;5070861;28;20201;-78
2022/06/08 09:53:06;;;;;;;1.75;1.00;;;10.70;99.90;;;;;;5068796;28;20227;-78
2022/06/08 09:55:56;;;;;;;2.33;0.80;;;10.70;99.90;;;;;;5073201;28;20196;-78
2022/06/08 09:58:55;;;;;;;1.23;0.70;;;10.60;99.90;;;;;;5064202;28;20196;-79
2022/06/08 10:01:33;;;;;;;2.30;0.80;;;10.60;99.90;;;;;;5069396;28;20201;-79
2022/06/08 10:04:33;;;;;;;1.25;0.82;;;10.60;99.90;;;;;;5073864;28;20240;-78
2022/06/08 10:07:14;;;;;;;1.40;0.75;;;10.60;99.90;;;;;;5074282;28;20219;-79
2022/06/08 10:10:08;;;;;;;2.65;0.68;;;10.50;99.90;;;;;;5070597;28;20707;-80
2022/06/08 10:12:46;;;;;;;1.23;0.75;;;10.50;99.90;;;;;;5072909;28;20545;-79
2022/06/08 10:15:26;;;;;;;1.48;0.82;;;10.40;99.90;;;;;;5074605;28;20216;-79
2022/06/08 10:18:02;;;;;;;2.72;1.33;;;10.40;99.90;;;;;;5071679;28;20203;-78
2022/06/08 10:20:38;;;;;;;2.28;1.60;;;10.40;99.90;;;;;;5074816;28;20192;-78
2022/06/08 10:23:20;;;;;;;2.53;1.67;;;10.40;99.90;;;;;;5073089;28;20243;-79
2022/06/08 10:25:59;;;;;;;2.97;1.73;;;10.40;99.90;;;;;;5071992;28;20634;-80
2022/06/08 10:28:38;;;;;;;2.80;2.00;;;10.40;99.90;;;;;;5066946;28;20652;-79
2022/06/08 10:31:17;;;;;;;6.10;2.75;;;10.30;99.90;;;;;;5062706;28;20200;-79
2022/06/08 10:33:54;;;;;;;11.73;5.78;;;10.30;99.90;;;;;;5070735;28;20263;-80
2022/06/08 10:36:27;;;;;;;13.95;5.13;;;10.30;99.90;;;;;;5069699;28;20220;-79
2022/06/08 10:38:58;;;;;;;4.05;1.85;;;10.30;99.90;;;;;;5073086;28;20202;-80
2022/06/08 10:44:36;;;;;;;1.00;0.70;;;10.30;99.90;;;;;;5070642;28;20319;-79
2022/06/08 10:47:30;;;;;;;1.08;0.70;;;10.20;99.90;;;;;;5071366;28;20219;-79
2022/06/08 10:50:19;;;;;;;1.58;1.00;;;10.20;99.90;;;;;;5060300;28;20204;-79
2022/06/08 10:52:51;;;;;;;1.00;0.90;;;10.10;99.90;;;;;;5072425;28;20212;-79
2022/06/08 10:55:43;;;;;;;2.17;0.80;;;10.10;99.90;;;;;;5072373;28;20205;-78
2022/06/08 10:58:18;;;;;;;2.30;0.70;;;10.10;99.90;;;;;;5069744;28;20200;-79
2022/06/08 11:01:05;;;;;;;3.33;0.95;;;10.10;99.90;;;;;;5072559;28;20216;-80
2022/06/08 11:03:54;;;;;;;4.53;0.88;;;10.10;99.90;;;;;;5062408;28;20288;-80
2022/06/08 11:07:05;;;;;;;0.98;0.63;;;10.10;99.90;;;;;;5067971;28;20193;-80
2022/06/08 11:10:01;;;;;;;1.70;0.65;;;10.10;99.90;;;;;;5070925;28;20683;-80
2022/06/08 11:12:53;;;;;;;4.50;1.00;;;10.10;99.90;;;;;;5068350;28;20240;-79
2022/06/08 11:15:49;;;;;;;1.92;0.82;;;10.10;99.90;;;;;;5071991;28;20193;-79
2022/06/08 11:18:32;;;;;;;1.98;0.85;;;10.10;99.90;;;;;;5067796;28;20587;-79
2022/06/08 11:21:33;;;;;;;1.08;0.80;;;10.00;99.90;;;;;;5071762;28;20281;-79
2022/06/08 11:24:07;;;;;;;2.13;0.80;;;10.00;99.90;;;;;;5072691;28;20209;-79
2022/06/08 11:26:56;;;;;;;1.52;0.85;;;10.00;99.90;;;;;;5072442;28;20197;-79
2022/06/08 11:29:48;;;;;;;1.60;0.90;;;10.00;99.90;;;;;;5071688;28;20201;-79
2022/06/08 11:32:59;;;;;;;1.55;0.73;;;10.00;99.90;;;;;;5054168;28;20185;-79
2022/06/08 11:35:48;;;;;;;1.52;0.70;;;9.90;99.90;;;;;;5051720;28;20197;-79
2022/06/08 11:38:29;;;;;;;2.28;0.80;;;9.90;99.90;;;;;;5071627;28;20243;-78
2022/06/08 11:41:25;;;;;;;1.00;0.90;;;9.90;99.90;;;;;;5070308;28;20228;-79
2022/06/08 11:43:55;;;;;;;1.33;1.05;;;9.90;99.90;;;;;;5071682;28;20189;-79
2022/06/08 11:46:31;;;;;;;1.65;1.40;;;9.80;99.90;;;;;;5069633;28;20193;-80
2022/06/08 11:49:01;;;;;;;2.30;1.40;;;9.80;99.90;;;;;;5071549;28;20192;-80
2022/06/08 11:51:37;;;;;;;3.20;1.60;;;9.70;99.90;;;;;;5068876;28;20212;-80
2022/06/08 11:54:24;;;;;;;5.40;1.70;;;9.70;99.90;;;;;;5067429;28;20219;-80
2022/06/08 11:57:07;;;;;;;4.97;1.48;;;9.70;99.90;;;;;;5069752;28;20652;-80
2022/06/08 11:59:39;;;;;;;2.22;1.40;;;9.60;99.90;;;;;;5069202;28;20189;-80
2022/06/08 12:02:23;;;;;;;4.53;1.38;;;9.50;99.90;;;;;;5070974;28;20204;-80
2022/06/08 12:04:56;;;;;;;2.45;1.40;;;9.50;99.90;;;;;;5062065;28;20237;-80
2022/06/08 12:07:43;;;;;;;3.92;1.50;;;9.40;99.90;;;;;;5070198;28;20189;-80
2022/06/08 12:10:17;;;;;;;2.83;1.50;;;9.40;99.90;;;;;;5068421;28;20652;-81
2022/06/08 12:12:49;;;;;;;2.47;1.38;;;9.40;99.90;;;;;;5066441;28;20209;-80
2022/06/08 12:15:43;;;;;;;2.72;1.30;;;9.40;99.90;;;;;;5070686;28;20193;-80
2022/06/08 12:18:34;;;;;;;3.92;1.60;;;9.40;99.90;;;;;;5071809;28;20283;-79
2022/06/08 12:21:08;;;;;;;3.45;1.38;;;9.40;99.90;;;;;;5070469;28;20204;-80
2022/06/08 12:23:45;;;;;;;2.65;1.67;;;9.40;99.90;;;;;;5072978;28;20633;-80
2022/06/08 12:26:21;;;;;;;4.65;1.65;;;9.30;99.90;;;;;;5075624;28;20287;-79
2022/06/08 12:29:02;;;;;;;3.53;1.52;;;9.20;99.90;;;;;;5073952;28;20192;-80
2022/06/08 12:31:34;;;;;;;1.83;1.27;;;9.20;99.90;;;;;;5070092;28;20674;-79
2022/06/08 12:34:35;;;;;;;2.42;1.48;;;9.20;99.90;;;;;;5074587;28;20266;-80
2022/06/08 12:37:34;;;;;;;3.38;1.52;;;9.10;99.90;;;;;;5069945;28;20306;-79
2022/06/08 12:40:26;;;;;;;2.33;1.40;;;9.20;99.90;;;;;;5060298;28;20200;-79
2022/06/08 12:43:00;;;;;;;3.65;1.60;;;9.10;99.90;;;;;;5070320;28;20208;-79
2022/06/08 12:45:33;;;;;;;3.20;1.50;;;9.20;99.90;;;;;;5070135;28;20208;-79
2022/06/08 12:48:18;;;;;;;3.17;1.83;;;9.10;99.90;;;;;;5075563;28;20201;-79
2022/06/08 12:50:49;;;;;;;5.55;1.58;;;9.10;99.90;;;;;;5071762;28;20768;-80
2022/06/08 12:53:20;;;;;;;1.83;1.35;;;9.20;99.90;;;;;;5076195;28;20216;-80
2022/06/08 12:55:53;;;;;;;2.55;1.40;;;9.20;99.90;;;;;;5073622;28;20189;-80
2022/06/08 12:58:24;;;;;;;2.42;1.58;;;9.20;99.90;;;;;;5074083;28;20229;-79
2022/06/08 13:00:56;;;;;;;1.55;1.27;;;9.20;99.90;;;;;;5074168;28;20278;-80
2022/06/08 13:03:29;;;;;;;2.88;1.33;;;9.20;99.90;;;;;;5073655;28;20721;-79
2022/06/08 13:06:00;;;;;;;1.33;0.98;;;9.20;99.90;;;;;;5073820;28;20225;-80
2022/06/08 13:08:31;;;;;;;2.40;1.30;;;9.20;99.90;;;;;;5073869;28;20197;-80
2022/06/08 13:11:06;;;;;;;2.20;1.20;;;9.20;99.90;;;;;;5073604;28;20193;-80
2022/06/08 13:13:38;;;;;;;2.72;1.25;;;9.20;99.90;;;;;;5075699;28;20238;-79
2022/06/08 13:16:15;;;;;;;2.15;1.30;;;9.20;99.90;;;;;;5074863;28;20614;-80
2022/06/08 13:18:46;;;;;;;1.48;1.30;;;9.20;99.90;;;;;;5073191;28;20216;-79
2022/06/08 13:21:16;;;;;;;2.92;1.30;;;9.10;99.90;;;;;;5053808;28;20189;-80
2022/06/08 13:23:47;;;;;;;4.03;1.30;;;9.20;99.90;;;;;;5073185;28;20254;-80
2022/06/08 13:26:22;;;;;;;3.53;1.40;;;9.10;99.90;;;;;;5073677;28;20193;-80
2022/06/08 13:28:54;;;;;;;3.15;1.40;;;9.10;99.90;;;;;;5073396;28;20208;-80
2022/06/08 13:31:28;;;;;;;2.00;1.48;;;9.10;99.90;;;;;;5068130;28;20254;-80
2022/06/08 13:34:04;;;;;;;2.70;1.30;;;9.10;99.90;;;;;;5073747;28;20221;-80
2022/06/08 13:36:38;;;;;;;4.38;1.27;;;9.10;99.90;;;;;;5067714;28;20236;-80
2022/06/08 13:39:27;;;;;;;3.72;1.52;;;9.00;99.90;;;;;;5065640;28;20590;-80
2022/06/08 13:42:02;;;;;;;3.67;1.90;;;9.00;99.90;;;;;;5067190;28;20197;-80
2022/06/08 13:44:35;;;;;;;3.25;1.50;;;9.00;99.90;;;;;;5070975;28;20200;-80
2022/06/08 13:47:09;;;;;;;4.65;1.60;;;8.90;99.90;;;;;;5058578;28;20648;-80